sensor_id;sensor_type;location;lat;lon;timestamp;pressure;altitude;pressure_sealevel;temperature;humidity
25420;BME280;13354;48.174;11.566;2024-01-15T00:00:17;94390.44;;;0.53;80.31
25420;BME280;13354;48.174;11.566;2024-01-15T00:02:43;94383.63;;;0.52;80.64
25420;BME280;13354;48.174;11.566;2024-01-15T00:05:08;94383.94;;;0.49;80.77
25420;BME280;13354;48.174;11.566;2024-01-15T00:07:33;94387.69;;;0.46;81.28
25420;BME280;13354;48.174;11.566;2024-01-15T00:09:59;94400.03;;;0.36;81.81
25420;BME280;13354;48.174;11.566;2024-01-15T00:12:24;94395.00;;;0.43;81.92
25420;BME280;13354;48.174;11.566;2024-01-15T00:14:49;94402.00;;;0.51;81.70
25420;BME280;13354;48.174;11.566;2024-01-15T00:17:15;94393.88;;;0.45;81.55
25420;BME280;13354;48.174;11.566;2024-01-15T00:19:40;94395.34;;;0.48;81.43
25420;BME280;13354;48.174;11.566;2024-01-15T00:22:05;94401.00;;;0.35;81.27
25420;BME280;13354;48.174;11.566;2024-01-15T00:24:31;94414.19;;;0.34;81.44
25420;BME280;13354;48.174;11.566;2024-01-15T00:26:56;94415.00;;;0.34;81.71
25420;BME280;13354;48.174;11.566;2024-01-15T00:29:21;94410.75;;;0.25;81.92
25420;BME280;13354;48.174;11.566;2024-01-15T00:31:47;94409.94;;;0.24;82.07
25420;BME280;13354;48.174;11.566;2024-01-15T00:34:12;94415.31;;;0.23;82.54
25420;BME280;13354;48.174;11.566;2024-01-15T00:36:37;94404.41;;;0.19;82.54
25420;BME280;13354;48.174;11.566;2024-01-15T00:39:03;94428.66;;;0.28;82.35
25420;BME280;13354;48.174;11.566;2024-01-15T00:41:30;94420.03;;;0.19;82.05
25420;BME280;13354;48.174;11.566;2024-01-15T00:43:56;94426.03;;;0.20;81.87
25420;BME280;13354;48.174;11.566;2024-01-15T00:46:21;94457.41;;;0.18;81.33
25420;BME280;13354;48.174;11.566;2024-01-15T00:48:47;94438.56;;;0.16;81.06
25420;BME280;13354;48.174;11.566;2024-01-15T00:51:12;94445.38;;;0.17;80.84
25420;BME280;13354;48.174;11.566;2024-01-15T00:53:38;94445.03;;;0.12;80.04
25420;BME280;13354;48.174;11.566;2024-01-15T00:56:03;94461.25;;;-0.02;79.87
25420;BME280;13354;48.174;11.566;2024-01-15T00:58:29;94471.97;;;-0.05;78.33
25420;BME280;13354;48.174;11.566;2024-01-15T01:00:54;94467.34;;;-0.19;77.00
25420;BME280;13354;48.174;11.566;2024-01-15T01:03:20;94461.41;;;-0.38;76.65
25420;BME280;13354;48.174;11.566;2024-01-15T01:05:48;94463.19;;;-0.38;76.15
25420;BME280;13354;48.174;11.566;2024-01-15T01:08:14;94465.78;;;-0.46;76.00
25420;BME280;13354;48.174;11.566;2024-01-15T01:10:40;94473.84;;;-0.58;76.30
25420;BME280;13354;48.174;11.566;2024-01-15T01:13:08;94464.75;;;-0.54;75.99
25420;BME280;13354;48.174;11.566;2024-01-15T01:15:33;94461.47;;;-0.56;76.46
25420;BME280;13354;48.174;11.566;2024-01-15T01:17:59;94462.13;;;-0.62;75.52
25420;BME280;13354;48.174;11.566;2024-01-15T01:20:24;94469.22;;;-0.64;76.23
25420;BME280;13354;48.174;11.566;2024-01-15T01:22:49;94463.91;;;-0.62;75.59
25420;BME280;13354;48.174;11.566;2024-01-15T01:25:15;94454.63;;;-0.65;75.69
25420;BME280;13354;48.174;11.566;2024-01-15T01:27:41;94467.28;;;-0.70;75.74
25420;BME280;13354;48.174;11.566;2024-01-15T01:30:06;94461.41;;;-0.72;75.97
25420;BME280;13354;48.174;11.566;2024-01-15T01:32:32;94454.41;;;-0.71;75.86
25420;BME280;13354;48.174;11.566;2024-01-15T01:34:57;94460.94;;;-0.67;75.92
25420;BME280;13354;48.174;11.566;2024-01-15T01:37:23;94468.94;;;-0.61;76.21
25420;BME280;13354;48.174;11.566;2024-01-15T01:39:48;94465.34;;;-0.60;75.62
25420;BME280;13354;48.174;11.566;2024-01-15T01:42:13;94466.28;;;-0.69;75.86
25420;BME280;13354;48.174;11.566;2024-01-15T01:44:39;94459.41;;;-0.78;74.73
25420;BME280;13354;48.174;11.566;2024-01-15T01:47:05;94470.00;;;-0.71;73.99
25420;BME280;13354;48.174;11.566;2024-01-15T01:49:30;94468.50;;;-0.74;72.84
25420;BME280;13354;48.174;11.566;2024-01-15T01:51:57;94460.28;;;-0.69;73.26
25420;BME280;13354;48.174;11.566;2024-01-15T01:54:25;94464.66;;;-0.70;72.77
25420;BME280;13354;48.174;11.566;2024-01-15T01:56:51;94456.38;;;-0.74;72.52
25420;BME280;13354;48.174;11.566;2024-01-15T01:59:17;94464.00;;;-0.72;71.87
25420;BME280;13354;48.174;11.566;2024-01-15T02:01:44;94469.19;;;-0.72;71.96
25420;BME280;13354;48.174;11.566;2024-01-15T02:04:10;94471.50;;;-0.69;72.03
25420;BME280;13354;48.174;11.566;2024-01-15T02:06:36;94463.31;;;-0.74;71.84
25420;BME280;13354;48.174;11.566;2024-01-15T02:09:01;94481.88;;;-0.69;70.65
25420;BME280;13354;48.174;11.566;2024-01-15T02:11:27;94476.97;;;-0.72;71.02
25420;BME280;13354;48.174;11.566;2024-01-15T02:13:52;94471.94;;;-0.74;71.61
25420;BME280;13354;48.174;11.566;2024-01-15T02:16:18;94477.97;;;-0.73;71.38
25420;BME280;13354;48.174;11.566;2024-01-15T02:18:44;94474.34;;;-0.80;71.68
25420;BME280;13354;48.174;11.566;2024-01-15T02:21:10;94465.34;;;-0.86;71.58
25420;BME280;13354;48.174;11.566;2024-01-15T02:23:36;94469.38;;;-0.91;71.38
25420;BME280;13354;48.174;11.566;2024-01-15T02:26:02;94470.25;;;-0.83;70.85
25420;BME280;13354;48.174;11.566;2024-01-15T02:28:28;94469.22;;;-0.90;70.98
25420;BME280;13354;48.174;11.566;2024-01-15T02:30:54;94472.94;;;-0.92;71.54
25420;BME280;13354;48.174;11.566;2024-01-15T02:33:19;94480.88;;;-0.94;71.97
25420;BME280;13354;48.174;11.566;2024-01-15T02:35:44;94484.50;;;-0.87;71.52
25420;BME280;13354;48.174;11.566;2024-01-15T02:38:11;94487.56;;;-0.91;71.35
25420;BME280;13354;48.174;11.566;2024-01-15T02:40:38;94487.50;;;-1.00;71.51
25420;BME280;13354;48.174;11.566;2024-01-15T02:43:03;94495.97;;;-0.98;71.24
25420;BME280;13354;48.174;11.566;2024-01-15T02:45:29;94502.72;;;-1.05;71.09
25420;BME280;13354;48.174;11.566;2024-01-15T02:47:54;94485.56;;;-0.98;71.39
25420;BME280;13354;48.174;11.566;2024-01-15T02:50:20;94491.16;;;-1.10;71.73
25420;BME280;13354;48.174;11.566;2024-01-15T02:52:45;94488.41;;;-1.09;71.98
25420;BME280;13354;48.174;11.566;2024-01-15T02:55:11;94489.44;;;-1.19;72.47
25420;BME280;13354;48.174;11.566;2024-01-15T02:57:36;94497.31;;;-1.11;72.94
25420;BME280;13354;48.174;11.566;2024-01-15T03:00:02;94502.06;;;-1.07;72.57
25420;BME280;13354;48.174;11.566;2024-01-15T03:02:29;94506.81;;;-1.20;73.06
25420;BME280;13354;48.174;11.566;2024-01-15T03:04:57;94503.75;;;-1.15;73.53
25420;BME280;13354;48.174;11.566;2024-01-15T03:07:22;94504.34;;;-1.22;74.23
25420;BME280;13354;48.174;11.566;2024-01-15T03:09:47;94499.47;;;-1.07;74.42
25420;BME280;13354;48.174;11.566;2024-01-15T03:12:13;94491.47;;;-1.13;74.82
25420;BME280;13354;48.174;11.566;2024-01-15T03:14:38;94494.56;;;-1.10;74.53
25420;BME280;13354;48.174;11.566;2024-01-15T03:17:03;94500.13;;;-1.05;73.73
25420;BME280;13354;48.174;11.566;2024-01-15T03:19:29;94489.28;;;-1.00;74.41
25420;BME280;13354;48.174;11.566;2024-01-15T03:21:56;94495.50;;;-0.93;74.67
25420;BME280;13354;48.174;11.566;2024-01-15T03:24:21;94490.72;;;-1.06;73.90
25420;BME280;13354;48.174;11.566;2024-01-15T03:26:46;94491.22;;;-1.20;74.75
25420;BME280;13354;48.174;11.566;2024-01-15T03:29:12;94488.16;;;-0.98;74.06
25420;BME280;13354;48.174;11.566;2024-01-15T03:31:37;94489.72;;;-1.05;74.13
25420;BME280;13354;48.174;11.566;2024-01-15T03:34:03;94486.38;;;-0.97;74.21
25420;BME280;13354;48.174;11.566;2024-01-15T03:36:28;94496.72;;;-1.05;74.15
25420;BME280;13354;48.174;11.566;2024-01-15T03:38:54;94491.88;;;-1.18;73.90
25420;BME280;13354;48.174;11.566;2024-01-15T03:41:19;94485.13;;;-1.11;74.44
25420;BME280;13354;48.174;11.566;2024-01-15T03:43:44;94484.84;;;-1.08;73.52
25420;BME280;13354;48.174;11.566;2024-01-15T03:46:10;94489.72;;;-1.05;73.79
25420;BME280;13354;48.174;11.566;2024-01-15T03:48:35;94494.94;;;-1.05;73.57
25420;BME280;13354;48.174;11.566;2024-01-15T03:51:01;94491.22;;;-1.02;73.52
25420;BME280;13354;48.174;11.566;2024-01-15T03:53:26;94494.63;;;-1.02;73.61
25420;BME280;13354;48.174;11.566;2024-01-15T03:55:51;94478.28;;;-0.94;73.61
25420;BME280;13354;48.174;11.566;2024-01-15T03:58:17;94489.09;;;-1.07;73.68
25420;BME280;13354;48.174;11.566;2024-01-15T04:00:43;94492.63;;;-1.08;74.12
25420;BME280;13354;48.174;11.566;2024-01-15T04:03:08;94484.84;;;-1.08;74.10
25420;BME280;13354;48.174;11.566;2024-01-15T04:05:34;94493.81;;;-1.02;73.88
25420;BME280;13354;48.174;11.566;2024-01-15T04:07:59;94480.16;;;-1.04;73.69
25420;BME280;13354;48.174;11.566;2024-01-15T04:10:25;94472.66;;;-1.07;73.60
25420;BME280;13354;48.174;11.566;2024-01-15T04:12:50;94474.91;;;-1.12;73.82
25420;BME280;13354;48.174;11.566;2024-01-15T04:15:15;94481.81;;;-1.21;74.05
25420;BME280;13354;48.174;11.566;2024-01-15T04:17:41;94472.00;;;-1.09;74.44
25420;BME280;13354;48.174;11.566;2024-01-15T04:20:07;94468.59;;;-1.10;73.95
25420;BME280;13354;48.174;11.566;2024-01-15T04:22:35;94470.91;;;-1.07;73.44
25420;BME280;13354;48.174;11.566;2024-01-15T04:25:00;94479.34;;;-1.23;74.58
25420;BME280;13354;48.174;11.566;2024-01-15T04:27:26;94480.38;;;-1.15;74.33
25420;BME280;13354;48.174;11.566;2024-01-15T04:29:51;94467.13;;;-1.12;74.01
25420;BME280;13354;48.174;11.566;2024-01-15T04:32:17;94475.63;;;-1.02;74.53
25420;BME280;13354;48.174;11.566;2024-01-15T04:34:42;94477.19;;;-0.91;74.05
25420;BME280;13354;48.174;11.566;2024-01-15T04:37:07;94476.81;;;-0.97;73.43
25420;BME280;13354;48.174;11.566;2024-01-15T04:39:32;94468.88;;;-0.95;73.73
25420;BME280;13354;48.174;11.566;2024-01-15T04:41:58;94464.63;;;-0.96;73.72
25420;BME280;13354;48.174;11.566;2024-01-15T04:44:23;94472.66;;;-1.07;74.32
25420;BME280;13354;48.174;11.566;2024-01-15T04:46:48;94463.91;;;-1.06;73.60
25420;BME280;13354;48.174;11.566;2024-01-15T04:49:14;94473.34;;;-1.05;73.74
25420;BME280;13354;48.174;11.566;2024-01-15T04:51:39;94475.59;;;-1.10;73.73
25420;BME280;13354;48.174;11.566;2024-01-15T04:54:04;94464.69;;;-1.14;73.74
25420;BME280;13354;48.174;11.566;2024-01-15T04:56:30;94452.34;;;-1.12;74.02
25420;BME280;13354;48.174;11.566;2024-01-15T04:58:55;94466.88;;;-1.19;74.39
25420;BME280;13354;48.174;11.566;2024-01-15T05:01:21;94470.75;;;-1.05;73.64
25420;BME280;13354;48.174;11.566;2024-01-15T05:03:46;94468.31;;;-1.07;74.43
25420;BME280;13354;48.174;11.566;2024-01-15T05:06:11;94473.19;;;-1.04;73.90
25420;BME280;13354;48.174;11.566;2024-01-15T05:08:37;94452.16;;;-0.92;73.55
25420;BME280;13354;48.174;11.566;2024-01-15T05:11:02;94470.84;;;-0.89;73.25
25420;BME280;13354;48.174;11.566;2024-01-15T05:13:28;94471.34;;;-0.85;73.31
25420;BME280;13354;48.174;11.566;2024-01-15T05:15:53;94461.91;;;-1.12;73.93
25420;BME280;13354;48.174;11.566;2024-01-15T05:18:18;94469.63;;;-1.03;73.81
25420;BME280;13354;48.174;11.566;2024-01-15T05:20:44;94469.47;;;-1.19;74.53
25420;BME280;13354;48.174;11.566;2024-01-15T05:23:09;94462.06;;;-1.14;74.24
25420;BME280;13354;48.174;11.566;2024-01-15T05:25:34;94461.97;;;-1.04;74.83
25420;BME280;13354;48.174;11.566;2024-01-15T05:28:00;94469.00;;;-0.97;74.15
25420;BME280;13354;48.174;11.566;2024-01-15T05:30:25;94460.19;;;-1.04;74.23
25420;BME280;13354;48.174;11.566;2024-01-15T05:32:50;94461.56;;;-1.17;74.62
25420;BME280;13354;48.174;11.566;2024-01-15T05:35:16;94461.00;;;-1.03;74.06
25420;BME280;13354;48.174;11.566;2024-01-15T05:37:44;94465.09;;;-1.01;74.49
25420;BME280;13354;48.174;11.566;2024-01-15T05:40:10;94459.88;;;-1.01;74.37
25420;BME280;13354;48.174;11.566;2024-01-15T05:42:36;94459.63;;;-1.15;74.68
25420;BME280;13354;48.174;11.566;2024-01-15T05:45:02;94462.50;;;-1.01;74.20
25420;BME280;13354;48.174;11.566;2024-01-15T05:47:29;94465.78;;;-1.16;73.92
25420;BME280;13354;48.174;11.566;2024-01-15T05:49:55;94465.19;;;-1.10;74.36
25420;BME280;13354;48.174;11.566;2024-01-15T05:52:21;94457.66;;;-0.95;74.18
25420;BME280;13354;48.174;11.566;2024-01-15T05:54:47;94465.72;;;-1.07;73.93
25420;BME280;13354;48.174;11.566;2024-01-15T05:57:12;94466.78;;;-0.91;73.64
25420;BME280;13354;48.174;11.566;2024-01-15T05:59:38;94461.00;;;-1.03;73.48
25420;BME280;13354;48.174;11.566;2024-01-15T06:02:03;94466.56;;;-0.98;73.58
25420;BME280;13354;48.174;11.566;2024-01-15T06:04:29;94462.66;;;-1.02;73.37
25420;BME280;13354;48.174;11.566;2024-01-15T06:06:54;94455.50;;;-1.00;73.19
25420;BME280;13354;48.174;11.566;2024-01-15T06:09:19;94455.59;;;-0.92;73.57
25420;BME280;13354;48.174;11.566;2024-01-15T06:11:45;94464.28;;;-1.01;73.32
25420;BME280;13354;48.174;11.566;2024-01-15T06:14:10;94456.03;;;-0.97;72.97
25420;BME280;13354;48.174;11.566;2024-01-15T06:16:35;94464.22;;;-1.09;72.92
25420;BME280;13354;48.174;11.566;2024-01-15T06:19:01;94461.38;;;-0.98;73.05
25420;BME280;13354;48.174;11.566;2024-01-15T06:21:26;94468.25;;;-0.89;72.98
25420;BME280;13354;48.174;11.566;2024-01-15T06:23:51;94473.34;;;-1.05;72.42
25420;BME280;13354;48.174;11.566;2024-01-15T06:26:17;94463.91;;;-1.06;73.23
25420;BME280;13354;48.174;11.566;2024-01-15T06:28:42;94469.56;;;-0.85;72.16
25420;BME280;13354;48.174;11.566;2024-01-15T06:31:08;94459.81;;;-0.91;71.77
25420;BME280;13354;48.174;11.566;2024-01-15T06:33:33;94460.91;;;-0.93;71.77
25420;BME280;13354;48.174;11.566;2024-01-15T06:35:59;94459.81;;;-0.91;71.99
25420;BME280;13354;48.174;11.566;2024-01-15T06:38:24;94457.50;;;-0.94;72.45
25420;BME280;13354;48.174;11.566;2024-01-15T06:40:50;94459.13;;;-0.93;71.79
25420;BME280;13354;48.174;11.566;2024-01-15T06:43:17;94457.25;;;-0.83;72.04
25420;BME280;13354;48.174;11.566;2024-01-15T06:45:43;94469.28;;;-0.82;71.76
25420;BME280;13354;48.174;11.566;2024-01-15T06:48:08;94462.47;;;-0.83;71.36
25420;BME280;13354;48.174;11.566;2024-01-15T06:50:34;94456.97;;;-0.80;71.04
25420;BME280;13354;48.174;11.566;2024-01-15T06:52:59;94461.22;;;-0.97;71.25
25420;BME280;13354;48.174;11.566;2024-01-15T06:55:24;94466.69;;;-0.82;71.73
25420;BME280;13354;48.174;11.566;2024-01-15T06:57:51;94471.00;;;-0.90;71.47
25420;BME280;13354;48.174;11.566;2024-01-15T07:00:17;94466.28;;;-0.95;71.48
25420;BME280;13354;48.174;11.566;2024-01-15T07:02:43;94474.16;;;-1.05;71.75
25420;BME280;13354;48.174;11.566;2024-01-15T07:05:08;94471.53;;;-0.87;71.27
25420;BME280;13354;48.174;11.566;2024-01-15T07:07:33;94465.22;;;-0.84;71.40
25420;BME280;13354;48.174;11.566;2024-01-15T07:09:59;94459.75;;;-0.99;71.52
25420;BME280;13354;48.174;11.566;2024-01-15T07:12:24;94465.13;;;-0.92;71.77
25420;BME280;13354;48.174;11.566;2024-01-15T07:14:50;94457.97;;;-0.73;71.43
25420;BME280;13354;48.174;11.566;2024-01-15T07:17:15;94446.06;;;-0.83;70.89
25420;BME280;13354;48.174;11.566;2024-01-15T07:19:40;94439.31;;;-0.68;71.23
25420;BME280;13354;48.174;11.566;2024-01-15T07:22:06;94441.91;;;-0.68;71.40
25420;BME280;13354;48.174;11.566;2024-01-15T07:24:31;94434.59;;;-0.73;71.26
25420;BME280;13354;48.174;11.566;2024-01-15T07:26:59;94449.94;;;-0.87;71.68
25420;BME280;13354;48.174;11.566;2024-01-15T07:29:24;94453.56;;;-0.80;71.91
25420;BME280;13354;48.174;11.566;2024-01-15T07:31:50;94434.69;;;-0.82;71.85
25420;BME280;13354;48.174;11.566;2024-01-15T07:34:17;94450.41;;;-0.66;71.93
25420;BME280;13354;48.174;11.566;2024-01-15T07:36:43;94450.28;;;-0.56;71.78
25420;BME280;13354;48.174;11.566;2024-01-15T07:39:09;94453.38;;;-0.53;71.68
25420;BME280;13354;48.174;11.566;2024-01-15T07:41:34;94441.75;;;-0.40;71.44
25420;BME280;13354;48.174;11.566;2024-01-15T07:44:00;94446.78;;;-0.73;71.89
25420;BME280;13354;48.174;11.566;2024-01-15T07:46:25;94463.53;;;-0.67;72.70
25420;BME280;13354;48.174;11.566;2024-01-15T07:48:51;94452.06;;;-0.57;73.38
25420;BME280;13354;48.174;11.566;2024-01-15T07:51:23;94436.97;;;-0.53;73.10
25420;BME280;13354;48.174;11.566;2024-01-15T07:53:48;94443.34;;;-0.47;72.28
25420;BME280;13354;48.174;11.566;2024-01-15T07:56:14;94445.38;;;-0.59;72.28
25420;BME280;13354;48.174;11.566;2024-01-15T07:58:39;94440.50;;;-0.62;73.23
25420;BME280;13354;48.174;11.566;2024-01-15T08:01:04;94432.31;;;-0.41;72.55
25420;BME280;13354;48.174;11.566;2024-01-15T08:03:30;94430.00;;;-0.44;72.61
25420;BME280;13354;48.174;11.566;2024-01-15T08:05:56;94425.47;;;-0.51;72.47
25420;BME280;13354;48.174;11.566;2024-01-15T08:08:22;94415.31;;;-0.62;73.03
25420;BME280;13354;48.174;11.566;2024-01-15T08:10:48;94436.16;;;-0.54;72.87
25420;BME280;13354;48.174;11.566;2024-01-15T08:13:14;94422.78;;;-0.33;72.78
25420;BME280;13354;48.174;11.566;2024-01-15T08:15:41;94417.38;;;-0.39;72.33
25420;BME280;13354;48.174;11.566;2024-01-15T08:18:06;94408.97;;;-0.59;73.06
25420;BME280;13354;48.174;11.566;2024-01-15T08:20:31;94412.34;;;-0.67;72.66
25420;BME280;13354;48.174;11.566;2024-01-15T08:22:57;94420.06;;;-0.57;73.33
25420;BME280;13354;48.174;11.566;2024-01-15T08:25:22;94414.88;;;-0.49;73.05
25420;BME280;13354;48.174;11.566;2024-01-15T08:27:47;94410.19;;;-0.45;72.78
25420;BME280;13354;48.174;11.566;2024-01-15T08:30:13;94409.38;;;-0.46;72.62
25420;BME280;13354;48.174;11.566;2024-01-15T08:32:38;94415.88;;;-0.50;72.71
25420;BME280;13354;48.174;11.566;2024-01-15T08:35:08;94417.22;;;-0.38;72.27
25420;BME280;13354;48.174;11.566;2024-01-15T08:37:33;94407.78;;;-0.39;72.36
25420;BME280;13354;48.174;11.566;2024-01-15T08:39:58;94423.63;;;-0.58;72.70
25420;BME280;13354;48.174;11.566;2024-01-15T08:42:24;94431.13;;;-0.55;72.86
25420;BME280;13354;48.174;11.566;2024-01-15T08:44:49;94425.97;;;-0.47;72.32
25420;BME280;13354;48.174;11.566;2024-01-15T08:47:15;94415.34;;;-0.54;72.27
25420;BME280;13354;48.174;11.566;2024-01-15T08:49:41;94425.28;;;-0.49;71.93
25420;BME280;13354;48.174;11.566;2024-01-15T08:52:08;94421.97;;;-0.59;72.55
25420;BME280;13354;48.174;11.566;2024-01-15T08:54:34;94427.03;;;-0.58;72.14
25420;BME280;13354;48.174;11.566;2024-01-15T08:56:59;94426.91;;;-0.48;71.93
25420;BME280;13354;48.174;11.566;2024-01-15T08:59:25;94432.50;;;-0.35;71.64
25420;BME280;13354;48.174;11.566;2024-01-15T09:01:52;94428.94;;;-0.34;71.68
25420;BME280;13354;48.174;11.566;2024-01-15T09:04:17;94433.34;;;-0.26;72.19
25420;BME280;13354;48.174;11.566;2024-01-15T09:06:46;94429.31;;;-0.20;72.00
25420;BME280;13354;48.174;11.566;2024-01-15T09:09:14;94427.41;;;-0.18;72.00
25420;BME280;13354;48.174;11.566;2024-01-15T09:11:42;94429.44;;;-0.30;72.04
25420;BME280;13354;48.174;11.566;2024-01-15T09:14:08;94421.63;;;-0.30;72.36
25420;BME280;13354;48.174;11.566;2024-01-15T09:16:34;94434.19;;;-0.52;72.98
25420;BME280;13354;48.174;11.566;2024-01-15T09:19:00;94429.97;;;-0.53;72.87
25420;BME280;13354;48.174;11.566;2024-01-15T09:21:25;94437.50;;;-0.41;72.75
25420;BME280;13354;48.174;11.566;2024-01-15T09:23:51;94436.06;;;-0.44;72.64
25420;BME280;13354;48.174;11.566;2024-01-15T09:26:16;94435.44;;;-0.30;72.18
25420;BME280;13354;48.174;11.566;2024-01-15T09:28:42;94439.19;;;-0.32;72.58
25420;BME280;13354;48.174;11.566;2024-01-15T09:31:07;94434.09;;;-0.42;72.44
25420;BME280;13354;48.174;11.566;2024-01-15T09:33:32;94430.84;;;-0.44;72.13
25420;BME280;13354;48.174;11.566;2024-01-15T09:36:01;94431.69;;;-0.35;72.32
25420;BME280;13354;48.174;11.566;2024-01-15T09:38:29;94437.78;;;-0.53;72.80
25420;BME280;13354;48.174;11.566;2024-01-15T09:40:54;94449.50;;;-0.49;72.87
25420;BME280;13354;48.174;11.566;2024-01-15T09:43:21;94445.63;;;-0.44;72.26
25420;BME280;13354;48.174;11.566;2024-01-15T09:45:46;94435.69;;;-0.49;72.55
25420;BME280;13354;48.174;11.566;2024-01-15T09:48:12;94442.41;;;-0.38;72.34
25420;BME280;13354;48.174;11.566;2024-01-15T09:50:38;94436.88;;;-0.43;71.81
25420;BME280;13354;48.174;11.566;2024-01-15T09:53:05;94439.69;;;-0.29;72.08
25420;BME280;13354;48.174;11.566;2024-01-15T09:55:30;94434.31;;;-0.27;71.45
25420;BME280;13354;48.174;11.566;2024-01-15T09:57:59;94438.75;;;-0.19;71.40
25420;BME280;13354;48.174;11.566;2024-01-15T10:00:26;94440.88;;;-0.15;71.42
25420;BME280;13354;48.174;11.566;2024-01-15T10:02:52;94434.75;;;0.03;70.87
25420;BME280;13354;48.174;11.566;2024-01-15T10:05:18;94438.66;;;0.07;69.48
25420;BME280;13354;48.174;11.566;2024-01-15T10:07:44;94416.91;;;0.16;69.23
25420;BME280;13354;48.174;11.566;2024-01-15T10:10:11;94417.63;;;-0.16;69.71
25420;BME280;13354;48.174;11.566;2024-01-15T10:12:36;94402.84;;;-0.08;69.98
25420;BME280;13354;48.174;11.566;2024-01-15T10:15:03;94399.50;;;0.00;70.20
25420;BME280;13354;48.174;11.566;2024-01-15T10:17:29;94408.75;;;0.03;69.96
25420;BME280;13354;48.174;11.566;2024-01-15T10:19:56;94412.19;;;0.11;68.93
25420;BME280;13354;48.174;11.566;2024-01-15T10:22:21;94402.75;;;0.10;68.81
25420;BME280;13354;48.174;11.566;2024-01-15T10:24:47;94392.34;;;0.10;69.68
25420;BME280;13354;48.174;11.566;2024-01-15T10:27:15;94383.22;;;0.14;68.75
25420;BME280;13354;48.174;11.566;2024-01-15T10:29:42;94389.91;;;0.01;69.69
25420;BME280;13354;48.174;11.566;2024-01-15T10:32:08;94386.31;;;0.10;68.98
25420;BME280;13354;48.174;11.566;2024-01-15T10:34:40;94362.13;;;0.34;68.32
25420;BME280;13354;48.174;11.566;2024-01-15T10:37:09;94369.72;;;0.11;68.89
25420;BME280;13354;48.174;11.566;2024-01-15T10:39:35;94370.56;;;0.19;69.02
25420;BME280;13354;48.174;11.566;2024-01-15T10:42:01;94371.38;;;0.12;68.75
25420;BME280;13354;48.174;11.566;2024-01-15T10:44:28;94371.88;;;0.15;68.34
25420;BME280;13354;48.174;11.566;2024-01-15T10:46:55;94361.59;;;0.22;68.27
25420;BME280;13354;48.174;11.566;2024-01-15T10:49:21;94376.94;;;0.41;68.00
25420;BME280;13354;48.174;11.566;2024-01-15T10:51:50;94381.81;;;0.53;67.64
25420;BME280;13354;48.174;11.566;2024-01-15T10:54:17;94352.19;;;0.62;67.50
25420;BME280;13354;48.174;11.566;2024-01-15T10:56:45;94350.59;;;0.53;67.12
25420;BME280;13354;48.174;11.566;2024-01-15T10:59:11;94357.41;;;0.45;67.86
25420;BME280;13354;48.174;11.566;2024-01-15T11:01:38;94361.81;;;0.61;67.42
25420;BME280;13354;48.174;11.566;2024-01-15T11:04:03;94376.25;;;0.88;67.10
25420;BME280;13354;48.174;11.566;2024-01-15T11:06:41;94362.28;;;0.89;66.34
25420;BME280;13354;48.174;11.566;2024-01-15T11:09:07;94355.75;;;0.93;66.54
25420;BME280;13354;48.174;11.566;2024-01-15T11:11:35;94351.19;;;0.87;67.31
25420;BME280;13354;48.174;11.566;2024-01-15T11:14:01;94343.50;;;1.02;66.89
25420;BME280;13354;48.174;11.566;2024-01-15T11:16:56;94334.75;;;1.03;66.91
25420;BME280;13354;48.174;11.566;2024-01-15T11:19:22;94353.97;;;0.94;67.73
25420;BME280;13354;48.174;11.566;2024-01-15T11:21:47;94348.13;;;0.67;67.85
25420;BME280;13354;48.174;11.566;2024-01-15T11:24:36;94346.31;;;0.84;68.64
25420;BME280;13354;48.174;11.566;2024-01-15T11:27:02;94354.78;;;0.70;69.36
25420;BME280;13354;48.174;11.566;2024-01-15T11:31:59;94350.06;;;0.73;68.85
25420;BME280;13354;48.174;11.566;2024-01-15T11:37:16;94343.09;;;0.58;68.62
25420;BME280;13354;48.174;11.566;2024-01-15T11:39:42;94334.13;;;0.60;68.84
25420;BME280;13354;48.174;11.566;2024-01-15T11:42:10;94341.47;;;0.48;69.33
25420;BME280;13354;48.174;11.566;2024-01-15T11:44:36;94336.72;;;0.85;69.19
25420;BME280;13354;48.174;11.566;2024-01-15T11:47:04;94335.97;;;1.24;67.06
25420;BME280;13354;48.174;11.566;2024-01-15T11:52:22;94323.53;;;2.04;65.16
25420;BME280;13354;48.174;11.566;2024-01-15T11:57:42;94317.00;;;2.54;63.40
25420;BME280;13354;48.174;11.566;2024-01-15T12:00:11;94309.19;;;2.69;62.28
25420;BME280;13354;48.174;11.566;2024-01-15T12:02:39;94311.66;;;3.00;61.53
25420;BME280;13354;48.174;11.566;2024-01-15T12:05:04;94305.84;;;2.75;61.23
25420;BME280;13354;48.174;11.566;2024-01-15T12:07:30;94301.84;;;3.02;60.94
25420;BME280;13354;48.174;11.566;2024-01-15T12:09:56;94302.56;;;2.96;60.13
25420;BME280;13354;48.174;11.566;2024-01-15T12:12:29;94288.94;;;2.86;59.93
25420;BME280;13354;48.174;11.566;2024-01-15T12:14:58;94293.56;;;2.99;60.04
25420;BME280;13354;48.174;11.566;2024-01-15T12:17:23;94289.03;;;3.22;59.85
25420;BME280;13354;48.174;11.566;2024-01-15T12:19:49;94284.44;;;3.24;59.12
25420;BME280;13354;48.174;11.566;2024-01-15T12:22:14;94278.13;;;3.33;58.93
25420;BME280;13354;48.174;11.566;2024-01-15T12:24:40;94272.97;;;3.40;58.41
25420;BME280;13354;48.174;11.566;2024-01-15T12:27:06;94246.47;;;3.43;57.16
25420;BME280;13354;48.174;11.566;2024-01-15T12:29:33;94226.63;;;3.19;58.13
25420;BME280;13354;48.174;11.566;2024-01-15T12:31:58;94234.69;;;3.03;58.32
25420;BME280;13354;48.174;11.566;2024-01-15T12:34:23;94220.25;;;3.07;57.87
25420;BME280;13354;48.174;11.566;2024-01-15T12:36:49;94225.63;;;3.20;57.67
25420;BME280;13354;48.174;11.566;2024-01-15T12:39:14;94241.38;;;3.42;57.25
25420;BME280;13354;48.174;11.566;2024-01-15T12:41:40;94242.84;;;3.44;57.05
25420;BME280;13354;48.174;11.566;2024-01-15T12:44:06;94251.44;;;3.23;57.44
25420;BME280;13354;48.174;11.566;2024-01-15T12:46:32;94260.81;;;3.18;58.32
25420;BME280;13354;48.174;11.566;2024-01-15T12:48:57;94252.44;;;3.22;58.17
25420;BME280;13354;48.174;11.566;2024-01-15T12:51:26;94244.75;;;3.35;58.49
25420;BME280;13354;48.174;11.566;2024-01-15T12:53:52;94235.69;;;3.53;58.37
25420;BME280;13354;48.174;11.566;2024-01-15T12:56:18;94234.72;;;3.54;57.97